sensor_id;sensor_type;location;lat;lon;timestamp;pressure;altitude;pressure_sealevel;temperature;humidity
66273;BME280;58450;52.150;4.466;2023-04-07T00:02:16;101523.09;;;8.72;100.00
66273;BME280;58450;52.150;4.466;2023-04-07T00:04:43;101520.09;;;8.75;100.00
66273;BME280;58450;52.150;4.466;2023-04-07T00:07:11;101517.63;;;8.82;100.00
66273;BME280;58450;52.150;4.466;2023-04-07T00:09:38;101518.19;;;8.94;100.00
66273;BME280;58450;52.150;4.466;2023-04-07T00:12:06;101511.03;;;8.76;100.00
66273;BME280;58450;52.150;4.466;2023-04-07T00:14:33;101511.47;;;8.63;100.00
66273;BME280;58450;52.150;4.466;2023-04-07T00:17:01;101513.94;;;8.56;100.00
66273;BME280;58450;52.150;4.466;2023-04-07T00:19:29;101510.78;;;8.43;100.00
66273;BME280;58450;52.150;4.466;2023-04-07T00:21:58;101508.22;;;8.33;100.00
66273;BME280;58450;52.150;4.466;2023-04-07T00:24:26;101512.13;;;8.39;100.00
66273;BME280;58450;52.150;4.466;2023-04-07T00:26:53;101509.78;;;8.44;100.00
66273;BME280;58450;52.150;4.466;2023-04-07T00:29:21;101508.38;;;8.32;100.00
66273;BME280;58450;52.150;4.466;2023-04-07T00:31:49;101518.25;;;8.31;100.00
66273;BME280;58450;52.150;4.466;2023-04-07T00:34:16;101519.03;;;8.23;100.00
66273;BME280;58450;52.150;4.466;2023-04-07T00:36:45;101519.72;;;8.25;100.00
66273;BME280;58450;52.150;4.466;2023-04-07T00:39:17;101526.22;;;8.23;100.00
66273;BME280;58450;52.150;4.466;2023-04-07T00:41:45;101532.97;;;8.27;100.00
66273;BME280;58450;52.150;4.466;2023-04-07T00:44:13;101524.41;;;8.23;100.00
66273;BME280;58450;52.150;4.466;2023-04-07T00:46:41;101530.38;;;8.17;100.00
66273;BME280;58450;52.150;4.466;2023-04-07T00:49:08;101522.84;;;8.21;100.00
66273;BME280;58450;52.150;4.466;2023-04-07T00:51:36;101525.69;;;8.19;100.00
66273;BME280;58450;52.150;4.466;2023-04-07T00:54:05;101532.28;;;8.25;100.00
66273;BME280;58450;52.150;4.466;2023-04-07T00:56:32;101528.53;;;8.18;100.00
66273;BME280;58450;52.150;4.466;2023-04-07T00:59:03;101535.13;;;8.23;100.00
66273;BME280;58450;52.150;4.466;2023-04-07T01:01:35;101525.84;;;8.18;100.00
66273;BME280;58450;52.150;4.466;2023-04-07T01:04:14;101529.38;;;8.18;100.00
66273;BME280;58450;52.150;4.466;2023-04-07T01:06:50;101537.72;;;8.15;100.00
66273;BME280;58450;52.150;4.466;2023-04-07T01:09:29;101534.81;;;8.26;100.00
66273;BME280;58450;52.150;4.466;2023-04-07T01:12:14;101530.13;;;8.28;100.00
66273;BME280;58450;52.150;4.466;2023-04-07T01:14:53;101531.22;;;8.36;100.00
66273;BME280;58450;52.150;4.466;2023-04-07T01:17:24;101526.88;;;8.43;100.00
66273;BME280;58450;52.150;4.466;2023-04-07T01:19:57;101531.72;;;8.39;100.00
66273;BME280;58450;52.150;4.466;2023-04-07T01:22:34;101535.09;;;8.41;100.00
66273;BME280;58450;52.150;4.466;2023-04-07T01:25:22;101531.72;;;8.39;100.00
66273;BME280;58450;52.150;4.466;2023-04-07T01:28:09;101531.88;;;8.56;100.00
66273;BME280;58450;52.150;4.466;2023-04-07T01:30:55;101534.31;;;8.67;100.00
66273;BME280;58450;52.150;4.466;2023-04-07T01:33:30;101536.13;;;8.67;100.00
66273;BME280;58450;52.150;4.466;2023-04-07T01:35:59;101529.63;;;8.69;100.00
66273;BME280;58450;52.150;4.466;2023-04-07T01:38:28;101530.00;;;8.75;100.00
66273;BME280;58450;52.150;4.466;2023-04-07T01:40:58;101536.06;;;8.77;100.00
66273;BME280;58450;52.150;4.466;2023-04-07T01:43:29;101528.38;;;8.90;100.00
66273;BME280;58450;52.150;4.466;2023-04-07T01:46:00;101526.97;;;9.04;100.00
66273;BME280;58450;52.150;4.466;2023-04-07T01:48:29;101522.94;;;9.00;100.00
66273;BME280;58450;52.150;4.466;2023-04-07T01:50:58;101536.13;;;8.93;100.00
66273;BME280;58450;52.150;4.466;2023-04-07T01:53:27;101536.34;;;9.00;100.00
66273;BME280;58450;52.150;4.466;2023-04-07T01:55:55;101527.44;;;8.99;100.00
66273;BME280;58450;52.150;4.466;2023-04-07T01:58:22;101531.47;;;9.04;100.00
66273;BME280;58450;52.150;4.466;2023-04-07T02:00:50;101526.28;;;9.02;100.00
66273;BME280;58450;52.150;4.466;2023-04-07T02:03:22;101518.97;;;9.12;100.00
66273;BME280;58450;52.150;4.466;2023-04-07T02:05:56;101523.97;;;9.07;100.00
66273;BME280;58450;52.150;4.466;2023-04-07T02:08:31;101523.84;;;9.17;100.00
66273;BME280;58450;52.150;4.466;2023-04-07T02:11:00;101530.34;;;9.06;100.00
66273;BME280;58450;52.150;4.466;2023-04-07T02:13:29;101524.00;;;8.81;100.00
66273;BME280;58450;52.150;4.466;2023-04-07T02:16:00;101522.03;;;8.65;100.00
66273;BME280;58450;52.150;4.466;2023-04-07T02:18:30;101533.13;;;8.25;100.00
66273;BME280;58450;52.150;4.466;2023-04-07T02:20:59;101532.75;;;8.20;100.00
66273;BME280;58450;52.150;4.466;2023-04-07T02:23:28;101537.47;;;8.45;100.00
66273;BME280;58450;52.150;4.466;2023-04-07T02:25:56;101544.66;;;8.44;100.00
66273;BME280;58450;52.150;4.466;2023-04-07T02:28:24;101547.31;;;8.36;100.00
66273;BME280;58450;52.150;4.466;2023-04-07T02:30:51;101541.56;;;8.31;100.00
66273;BME280;58450;52.150;4.466;2023-04-07T02:33:18;101539.31;;;8.89;100.00
66273;BME280;58450;52.150;4.466;2023-04-07T02:35:47;101546.44;;;9.06;100.00
66273;BME280;58450;52.150;4.466;2023-04-07T02:38:15;101538.84;;;9.01;100.00
66273;BME280;58450;52.150;4.466;2023-04-07T02:40:42;101539.75;;;8.84;100.00
66273;BME280;58450;52.150;4.466;2023-04-07T02:43:10;101540.75;;;9.09;100.00
66273;BME280;58450;52.150;4.466;2023-04-07T02:45:37;101539.13;;;9.16;100.00
66273;BME280;58450;52.150;4.466;2023-04-07T02:48:05;101535.81;;;8.96;100.00
66273;BME280;58450;52.150;4.466;2023-04-07T02:50:32;101537.28;;;8.91;100.00
66273;BME280;58450;52.150;4.466;2023-04-07T02:53:01;101535.72;;;9.06;100.00
66273;BME280;58450;52.150;4.466;2023-04-07T02:55:29;101546.59;;;9.05;100.00
66273;BME280;58450;52.150;4.466;2023-04-07T02:57:56;101543.31;;;8.84;100.00
66273;BME280;58450;52.150;4.466;2023-04-07T03:00:24;101540.03;;;8.99;100.00
66273;BME280;58450;52.150;4.466;2023-04-07T03:02:52;101545.84;;;8.94;100.00
66273;BME280;58450;52.150;4.466;2023-04-07T03:05:19;101540.50;;;8.94;100.00
66273;BME280;58450;52.150;4.466;2023-04-07T03:07:47;101542.72;;;8.99;100.00
66273;BME280;58450;52.150;4.466;2023-04-07T03:10:16;101545.91;;;9.02;100.00
66273;BME280;58450;52.150;4.466;2023-04-07T03:12:43;101547.63;;;8.77;100.00
66273;BME280;58450;52.150;4.466;2023-04-07T03:15:11;101561.59;;;8.63;100.00
66273;BME280;58450;52.150;4.466;2023-04-07T03:17:38;101547.41;;;8.97;100.00
66273;BME280;58450;52.150;4.466;2023-04-07T03:20:07;101556.38;;;9.14;100.00
66273;BME280;58450;52.150;4.466;2023-04-07T03:22:34;101551.66;;;8.81;100.00
66273;BME280;58450;52.150;4.466;2023-04-07T03:25:02;101556.69;;;9.11;100.00
66273;BME280;58450;52.150;4.466;2023-04-07T03:27:32;101553.19;;;9.10;100.00
66273;BME280;58450;52.150;4.466;2023-04-07T03:29:59;101554.03;;;8.84;100.00
66273;BME280;58450;52.150;4.466;2023-04-07T03:32:26;101558.97;;;8.97;100.00
66273;BME280;58450;52.150;4.466;2023-04-07T03:34:54;101563.88;;;9.02;100.00
66273;BME280;58450;52.150;4.466;2023-04-07T03:37:22;101556.13;;;8.99;100.00
66273;BME280;58450;52.150;4.466;2023-04-07T03:39:49;101549.88;;;8.90;100.00
66273;BME280;58450;52.150;4.466;2023-04-07T03:42:17;101550.81;;;9.07;100.00
66273;BME280;58450;52.150;4.466;2023-04-07T03:44:45;101553.50;;;9.07;100.00
66273;BME280;58450;52.150;4.466;2023-04-07T03:47:14;101548.19;;;8.89;100.00
66273;BME280;58450;52.150;4.466;2023-04-07T03:49:41;101550.97;;;9.06;100.00
66273;BME280;58450;52.150;4.466;2023-04-07T03:52:09;101551.00;;;9.14;100.00
66273;BME280;58450;52.150;4.466;2023-04-07T03:54:36;101554.00;;;9.11;100.00
66273;BME280;58450;52.150;4.466;2023-04-07T03:57:04;101558.91;;;9.15;100.00
66273;BME280;58450;52.150;4.466;2023-04-07T03:59:31;101560.69;;;9.07;100.00
66273;BME280;58450;52.150;4.466;2023-04-07T04:02:00;101559.66;;;8.99;100.00
66273;BME280;58450;52.150;4.466;2023-04-07T04:04:28;101557.59;;;9.20;100.00
66273;BME280;58450;52.150;4.466;2023-04-07T04:06:55;101564.78;;;9.19;100.00
66273;BME280;58450;52.150;4.466;2023-04-07T04:09:23;101560.06;;;9.13;100.00
66273;BME280;58450;52.150;4.466;2023-04-07T04:11:50;101558.09;;;9.23;100.00
66273;BME280;58450;52.150;4.466;2023-04-07T04:14:18;101565.44;;;9.13;100.00
66273;BME280;58450;52.150;4.466;2023-04-07T04:16:45;101559.38;;;9.11;100.00
66273;BME280;58450;52.150;4.466;2023-04-07T04:19:14;101559.38;;;9.11;100.00
66273;BME280;58450;52.150;4.466;2023-04-07T04:21:41;101572.72;;;9.21;100.00
66273;BME280;58450;52.150;4.466;2023-04-07T04:24:09;101566.97;;;9.15;100.00
66273;BME280;58450;52.150;4.466;2023-04-07T04:26:36;101577.50;;;9.09;100.00
66273;BME280;58450;52.150;4.466;2023-04-07T04:29:04;101577.34;;;9.10;100.00
66273;BME280;58450;52.150;4.466;2023-04-07T04:31:31;101578.88;;;9.13;100.00
66273;BME280;58450;52.150;4.466;2023-04-07T04:33:59;101583.22;;;9.14;100.00
66273;BME280;58450;52.150;4.466;2023-04-07T04:36:28;101582.72;;;9.10;100.00
66273;BME280;58450;52.150;4.466;2023-04-07T04:38:56;101581.22;;;9.16;100.00
66273;BME280;58450;52.150;4.466;2023-04-07T04:41:23;101586.47;;;9.18;100.00
66273;BME280;58450;52.150;4.466;2023-04-07T04:43:51;101575.81;;;9.08;100.00
66273;BME280;58450;52.150;4.466;2023-04-07T04:46:18;101578.41;;;9.18;100.00
66273;BME280;58450;52.150;4.466;2023-04-07T04:48:46;101582.41;;;9.13;100.00
66273;BME280;58450;52.150;4.466;2023-04-07T04:51:13;101588.56;;;9.06;100.00
66273;BME280;58450;52.150;4.466;2023-04-07T04:53:42;101588.34;;;8.99;100.00
66273;BME280;58450;52.150;4.466;2023-04-07T04:56:09;101600.72;;;8.92;100.00
66273;BME280;58450;52.150;4.466;2023-04-07T04:58:38;101592.41;;;9.03;100.00
66273;BME280;58450;52.150;4.466;2023-04-07T05:01:07;101604.09;;;8.94;100.00
66273;BME280;58450;52.150;4.466;2023-04-07T05:03:34;101597.41;;;8.98;100.00
66273;BME280;58450;52.150;4.466;2023-04-07T05:06:02;101599.50;;;8.86;100.00
66273;BME280;58450;52.150;4.466;2023-04-07T05:08:29;101599.03;;;8.91;100.00
66273;BME280;58450;52.150;4.466;2023-04-07T05:10:58;101595.72;;;8.97;100.00
66273;BME280;58450;52.150;4.466;2023-04-07T05:13:26;101597.03;;;8.93;100.00
66273;BME280;58450;52.150;4.466;2023-04-07T05:15:55;101604.72;;;9.14;100.00
66273;BME280;58450;52.150;4.466;2023-04-07T05:18:23;101600.56;;;9.20;100.00
66273;BME280;58450;52.150;4.466;2023-04-07T05:20:51;101612.94;;;9.12;100.00
66273;BME280;58450;52.150;4.466;2023-04-07T05:23:18;101603.25;;;9.20;100.00
66273;BME280;58450;52.150;4.466;2023-04-07T05:25:46;101606.94;;;9.19;100.00
66273;BME280;58450;52.150;4.466;2023-04-07T05:28:15;101610.41;;;9.11;100.00
66273;BME280;58450;52.150;4.466;2023-04-07T05:30:42;101611.41;;;9.10;100.00
66273;BME280;58450;52.150;4.466;2023-04-07T05:33:10;101615.69;;;9.21;100.00
66273;BME280;58450;52.150;4.466;2023-04-07T05:35:38;101617.31;;;9.13;100.00
66273;BME280;58450;52.150;4.466;2023-04-07T05:38:05;101612.50;;;9.25;100.00
66273;BME280;58450;52.150;4.466;2023-04-07T05:40:33;101613.69;;;9.23;100.00
66273;BME280;58450;52.150;4.466;2023-04-07T05:43:00;101620.69;;;9.15;100.00
66273;BME280;58450;52.150;4.466;2023-04-07T05:45:29;101614.81;;;9.20;100.00
66273;BME280;58450;52.150;4.466;2023-04-07T05:47:57;101613.13;;;9.19;100.00
66273;BME280;58450;52.150;4.466;2023-04-07T05:50:24;101617.06;;;9.33;100.00
66273;BME280;58450;52.150;4.466;2023-04-07T05:52:52;101622.81;;;9.38;100.00
66273;BME280;58450;52.150;4.466;2023-04-07T05:55:19;101620.06;;;9.30;100.00
66273;BME280;58450;52.150;4.466;2023-04-07T05:57:47;101622.19;;;9.18;100.00
66273;BME280;58450;52.150;4.466;2023-04-07T06:00:15;101622.75;;;9.30;100.00
66273;BME280;58450;52.150;4.466;2023-04-07T06:02:45;101625.78;;;9.27;100.00
66273;BME280;58450;52.150;4.466;2023-04-07T06:05:13;101641.03;;;9.26;100.00
66273;BME280;58450;52.150;4.466;2023-04-07T06:07:40;101633.41;;;9.40;100.00
66273;BME280;58450;52.150;4.466;2023-04-07T06:10:08;101642.72;;;9.27;100.00
66273;BME280;58450;52.150;4.466;2023-04-07T06:12:35;101643.03;;;9.24;100.00
66273;BME280;58450;52.150;4.466;2023-04-07T06:15:03;101639.28;;;9.43;100.00
66273;BME280;58450;52.150;4.466;2023-04-07T06:17:31;101645.16;;;9.39;100.00
66273;BME280;58450;52.150;4.466;2023-04-07T06:20:00;101646.91;;;9.22;100.00
66273;BME280;58450;52.150;4.466;2023-04-07T06:22:27;101649.38;;;9.15;100.00
66273;BME280;58450;52.150;4.466;2023-04-07T06:24:55;101659.72;;;9.10;100.00
66273;BME280;58450;52.150;4.466;2023-04-07T06:27:22;101656.22;;;9.09;100.00
66273;BME280;58450;52.150;4.466;2023-04-07T06:29:50;101659.41;;;8.86;100.00
66273;BME280;58450;52.150;4.466;2023-04-07T06:32:17;101661.66;;;8.99;100.00
66273;BME280;58450;52.150;4.466;2023-04-07T06:34:45;101671.34;;;9.10;100.00
66273;BME280;58450;52.150;4.466;2023-04-07T06:37:14;101665.03;;;9.01;100.00
66273;BME280;58450;52.150;4.466;2023-04-07T06:39:41;101663.66;;;8.97;100.00
66273;BME280;58450;52.150;4.466;2023-04-07T06:42:10;101667.06;;;8.81;100.00
66273;BME280;58450;52.150;4.466;2023-04-07T06:44:37;101669.28;;;8.86;100.00
66273;BME280;58450;52.150;4.466;2023-04-07T06:47:05;101675.00;;;8.83;100.00
66273;BME280;58450;52.150;4.466;2023-04-07T06:49:34;101673.66;;;8.87;100.00
66273;BME280;58450;52.150;4.466;2023-04-07T06:52:01;101669.53;;;8.93;100.00
66273;BME280;58450;52.150;4.466;2023-04-07T06:54:30;101677.19;;;8.87;100.00
66273;BME280;58450;52.150;4.466;2023-04-07T06:56:57;101673.81;;;8.85;100.00
66273;BME280;58450;52.150;4.466;2023-04-07T06:59:26;101683.75;;;9.11;100.00
66273;BME280;58450;52.150;4.466;2023-04-07T07:01:53;101688.59;;;9.08;100.00
66273;BME280;58450;52.150;4.466;2023-04-07T07:04:21;101689.13;;;9.11;100.00
66273;BME280;58450;52.150;4.466;2023-04-07T07:06:48;101681.22;;;9.10;100.00
66273;BME280;58450;52.150;4.466;2023-04-07T07:09:16;101690.66;;;9.14;100.00
66273;BME280;58450;52.150;4.466;2023-04-07T07:11:45;101689.66;;;9.15;100.00
66273;BME280;58450;52.150;4.466;2023-04-07T07:14:12;101682.84;;;9.29;100.00
66273;BME280;58450;52.150;4.466;2023-04-07T07:16:40;101688.59;;;9.08;100.00
66273;BME280;58450;52.150;4.466;2023-04-07T07:19:07;101697.13;;;9.03;100.00
66273;BME280;58450;52.150;4.466;2023-04-07T07:21:35;101695.38;;;8.94;100.00
66273;BME280;58450;52.150;4.466;2023-04-07T07:24:03;101703.19;;;9.05;100.00
66273;BME280;58450;52.150;4.466;2023-04-07T07:26:31;101698.13;;;9.02;100.00
66273;BME280;58450;52.150;4.466;2023-04-07T07:29:00;101702.31;;;9.05;100.00
66273;BME280;58450;52.150;4.466;2023-04-07T07:31:27;101702.94;;;8.98;100.00
66273;BME280;58450;52.150;4.466;2023-04-07T07:33:56;101711.25;;;9.31;100.00
66273;BME280;58450;52.150;4.466;2023-04-07T07:36:23;101704.56;;;8.91;100.00
66273;BME280;58450;52.150;4.466;2023-04-07T07:38:51;101716.19;;;9.18;100.00
66273;BME280;58450;52.150;4.466;2023-04-07T07:41:19;101716.44;;;9.25;100.00
66273;BME280;58450;52.150;4.466;2023-04-07T07:43:46;101711.81;;;9.43;100.00
66273;BME280;58450;52.150;4.466;2023-04-07T07:46:15;101720.88;;;9.42;100.00
66273;BME280;58450;52.150;4.466;2023-04-07T07:48:42;101716.94;;;9.55;100.00
66273;BME280;58450;52.150;4.466;2023-04-07T07:51:11;101729.06;;;9.59;100.00
66273;BME280;58450;52.150;4.466;2023-04-07T07:53:39;101731.19;;;9.47;100.00
66273;BME280;58450;52.150;4.466;2023-04-07T07:56:07;101728.31;;;9.49;100.00
66273;BME280;58450;52.150;4.466;2023-04-07T07:58:34;101739.34;;;9.64;100.00
66273;BME280;58450;52.150;4.466;2023-04-07T08:01:02;101732.47;;;9.69;100.00
66273;BME280;58450;52.150;4.466;2023-04-07T08:03:31;101738.34;;;9.65;100.00
66273;BME280;58450;52.150;4.466;2023-04-07T08:05:58;101737.34;;;9.66;100.00
66273;BME280;58450;52.150;4.466;2023-04-07T08:08:26;101735.59;;;9.56;100.00
66273;BME280;58450;52.150;4.466;2023-04-07T08:10:53;101744.34;;;9.58;100.00
66273;BME280;58450;52.150;4.466;2023-04-07T08:13:21;101741.41;;;9.70;100.00
66273;BME280;58450;52.150;4.466;2023-04-07T08:15:48;101745.09;;;9.69;100.00
66273;BME280;58450;52.150;4.466;2023-04-07T08:18:16;101749.88;;;9.57;100.00
66273;BME280;58450;52.150;4.466;2023-04-07T08:20:45;101744.59;;;9.73;100.00
66273;BME280;58450;52.150;4.466;2023-04-07T08:23:13;101744.75;;;9.72;100.00
66273;BME280;58450;52.150;4.466;2023-04-07T08:25:40;101755.22;;;9.83;100.00
66273;BME280;58450;52.150;4.466;2023-04-07T08:28:08;101758.91;;;9.82;100.00
66273;BME280;58450;52.150;4.466;2023-04-07T08:30:36;101755.84;;;9.77;100.00
66273;BME280;58450;52.150;4.466;2023-04-07T08:33:04;101763.31;;;9.57;100.00
66273;BME280;58450;52.150;4.466;2023-04-07T08:35:32;101757.03;;;9.74;100.00
66273;BME280;58450;52.150;4.466;2023-04-07T08:38:01;101767.38;;;9.96;100.00
66273;BME280;58450;52.150;4.466;2023-04-07T08:40:29;101767.72;;;9.93;100.00
66273;BME280;58450;52.150;4.466;2023-04-07T08:42:59;101770.03;;;9.61;100.00
66273;BME280;58450;52.150;4.466;2023-04-07T08:45:30;101773.84;;;9.76;100.00
66273;BME280;58450;52.150;4.466;2023-04-07T08:48:03;101768.72;;;9.91;100.00
66273;BME280;58450;52.150;4.466;2023-04-07T08:50:40;101770.53;;;9.83;100.00
66273;BME280;58450;52.150;4.466;2023-04-07T08:53:12;101778.88;;;10.06;100.00
66273;BME280;58450;52.150;4.466;2023-04-07T08:55:45;101774.81;;;10.02;100.00
66273;BME280;58450;52.150;4.466;2023-04-07T08:58:13;101785.13;;;10.07;100.00
66273;BME280;58450;52.150;4.466;2023-04-07T09:00:42;101779.78;;;9.88;100.00
66273;BME280;58450;52.150;4.466;2023-04-07T09:03:14;101785.28;;;9.79;100.00
66273;BME280;58450;52.150;4.466;2023-04-07T09:05:44;101787.09;;;9.70;100.00
66273;BME280;58450;52.150;4.466;2023-04-07T09:08:13;101783.53;;;9.96;100.00
66273;BME280;58450;52.150;4.466;2023-04-07T09:10:41;101788.75;;;9.97;100.00
66273;BME280;58450;52.150;4.466;2023-04-07T09:13:08;101784.50;;;10.29;100.00
66273;BME280;58450;52.150;4.466;2023-04-07T09:15:36;101788.84;;;10.14;100.00
66273;BME280;58450;52.150;4.466;2023-04-07T09:18:04;101797.75;;;10.14;100.00
66273;BME280;58450;52.150;4.466;2023-04-07T09:20:56;101787.16;;;10.13;100.00
66273;BME280;58450;52.150;4.466;2023-04-07T09:23:30;101779.00;;;10.31;100.00
66273;BME280;58450;52.150;4.466;2023-04-07T09:26:00;101795.59;;;10.53;100.00
66273;BME280;58450;52.150;4.466;2023-04-07T09:28:45;101792.69;;;10.46;100.00
66273;BME280;58450;52.150;4.466;2023-04-07T09:31:13;101793.28;;;10.83;100.00
66273;BME280;58450;52.150;4.466;2023-04-07T09:33:41;101780.84;;;10.90;100.00
66273;BME280;58450;52.150;4.466;2023-04-07T09:36:09;101794.00;;;11.18;100.00
66273;BME280;58450;52.150;4.466;2023-04-07T09:38:39;101804.59;;;10.94;100.00
66273;BME280;58450;52.150;4.466;2023-04-07T09:41:08;101793.81;;;10.86;100.00
66273;BME280;58450;52.150;4.466;2023-04-07T09:43:39;101802.84;;;10.69;100.00
66273;BME280;58450;52.150;4.466;2023-04-07T09:46:11;101793.28;;;10.83;100.00
66273;BME280;58450;52.150;4.466;2023-04-07T09:48:41;101795.53;;;11.04;100.00
66273;BME280;58450;52.150;4.466;2023-04-07T09:51:10;101806.19;;;10.62;100.00
66273;BME280;58450;52.150;4.466;2023-04-07T09:53:48;101804.53;;;10.70;100.00
66273;BME280;58450;52.150;4.466;2023-04-07T09:56:17;101803.81;;;10.51;100.00
66273;BME280;58450;52.150;4.466;2023-04-07T09:58:48;101809.41;;;10.66;100.00
66273;BME280;58450;52.150;4.466;2023-04-07T10:01:19;101814.78;;;10.66;100.00
66273;BME280;58450;52.150;4.466;2023-04-07T10:03:47;101802.56;;;10.80;100.00
66273;BME280;58450;52.150;4.466;2023-04-07T10:06:16;101810.41;;;10.30;100.00
66273;BME280;58450;52.150;4.466;2023-04-07T10:08:43;101813.38;;;10.19;100.00
66273;BME280;58450;52.150;4.466;2023-04-07T10:11:14;101811.00;;;10.08;100.00
66273;BME280;58450;52.150;4.466;2023-04-07T10:13:41;101823.34;;;9.92;100.00
66273;BME280;58450;52.150;4.466;2023-04-07T10:16:10;101821.03;;;9.97;100.00
66273;BME280;58450;52.150;4.466;2023-04-07T10:18:38;101823.28;;;10.10;100.00
66273;BME280;58450;52.150;4.466;2023-04-07T10:21:06;101819.94;;;10.16;100.00
66273;BME280;58450;52.150;4.466;2023-04-07T10:23:53;101821.22;;;9.78;100.00
66273;BME280;58450;52.150;4.466;2023-04-07T10:26:29;101816.91;;;9.85;100.00
66273;BME280;58450;52.150;4.466;2023-04-07T10:29:05;101826.88;;;9.93;100.00
66273;BME280;58450;52.150;4.466;2023-04-07T10:31:38;101822.47;;;9.65;100.00
66273;BME280;58450;52.150;4.466;2023-04-07T10:34:05;101830.44;;;9.75;100.00
66273;BME280;58450;52.150;4.466;2023-04-07T10:36:33;101832.34;;;9.83;100.00
66273;BME280;58450;52.150;4.466;2023-04-07T10:39:20;101836.03;;;9.82;100.00
66273;BME280;58450;52.150;4.466;2023-04-07T10:41:49;101839.25;;;9.85;100.00
66273;BME280;58450;52.150;4.466;2023-04-07T10:44:46;101844.56;;;10.30;100.00
66273;BME280;58450;52.150;4.466;2023-04-07T10:47:15;101841.59;;;10.07;100.00
66273;BME280;58450;52.150;4.466;2023-04-07T10:50:14;101837.97;;;10.24;100.00
66273;BME280;58450;52.150;4.466;2023-04-07T10:52:44;101841.28;;;10.10;100.00
66273;BME280;58450;52.150;4.466;2023-04-07T10:55:32;101838.69;;;10.00;100.00
66273;BME280;58450;52.150;4.466;2023-04-07T10:58:20;101845.34;;;10.22;100.00
66273;BME280;58450;52.150;4.466;2023-04-07T11:01:16;101841.81;;;10.22;100.00
66273;BME280;58450;52.150;4.466;2023-04-07T11:03:59;101847.25;;;10.30;100.00
66273;BME280;58450;52.150;4.466;2023-04-07T11:06:27;101841.28;;;10.18;100.00
66273;BME280;58450;52.150;4.466;2023-04-07T11:08:54;101848.81;;;10.06;100.00
66273;BME280;58450;52.150;4.466;2023-04-07T11:11:36;101851.56;;;9.88;100.00
66273;BME280;58450;52.150;4.466;2023-04-07T11:14:06;101857.69;;;9.80;100.00
66273;BME280;58450;52.150;4.466;2023-04-07T11:16:41;101846.22;;;9.96;100.00
66273;BME280;58450;52.150;4.466;2023-04-07T11:19:10;101853.81;;;10.01;100.00
66273;BME280;58450;52.150;4.466;2023-04-07T11:21:38;101854.88;;;10.08;100.00
66273;BME280;58450;52.150;4.466;2023-04-07T11:24:05;101853.63;;;9.76;100.00
66273;BME280;58450;52.150;4.466;2023-04-07T11:26:37;101858.94;;;9.86;100.00
66273;BME280;58450;52.150;4.466;2023-04-07T11:29:07;101867.19;;;10.19;100.00
66273;BME280;58450;52.150;4.466;2023-04-07T11:31:35;101871.63;;;10.02;100.00
66273;BME280;58450;52.150;4.466;2023-04-07T11:34:04;101860.06;;;10.36;100.00
66273;BME280;58450;52.150;4.466;2023-04-07T11:36:33;101860.13;;;10.18;100.00
66273;BME280;58450;52.150;4.466;2023-04-07T11:39:01;101863.09;;;10.07;100.00
66273;BME280;58450;52.150;4.466;2023-04-07T11:41:30;101866.09;;;10.03;100.00
66273;BME280;58450;52.150;4.466;2023-04-07T11:44:03;101864.81;;;10.16;100.00
66273;BME280;58450;52.150;4.466;2023-04-07T11:46:36;101871.78;;;10.27;100.00
66273;BME280;58450;52.150;4.466;2023-04-07T11:49:17;101872.88;;;10.77;100.00
66273;BME280;58450;52.150;4.466;2023-04-07T11:51:45;101873.72;;;10.77;100.00
66273;BME280;58450;52.150;4.466;2023-04-07T11:54:13;101873.84;;;10.68;100.00
66273;BME280;58450;52.150;4.466;2023-04-07T11:56:42;101887.97;;;10.35;100.00
66273;BME280;58450;52.150;4.466;2023-04-07T11:59:20;101887.56;;;10.48;100.00
66273;BME280;58450;52.150;4.466;2023-04-07T12:01:49;101875.31;;;10.54;100.00
66273;BME280;58450;52.150;4.466;2023-04-07T12:04:17;101883.44;;;10.35;100.00
66273;BME280;58450;52.150;4.466;2023-04-07T12:06:47;101886.38;;;10.85;100.00
66273;BME280;58450;52.150;4.466;2023-04-07T12:09:26;101886.00;;;10.72;100.00
66273;BME280;58450;52.150;4.466;2023-04-07T12:11:55;101895.38;;;10.33;100.00
66273;BME280;58450;52.150;4.466;2023-04-07T12:14:25;101887.75;;;10.28;100.00
66273;BME280;58450;52.150;4.466;2023-04-07T12:16:54;101895.34;;;10.59;100.00
66273;BME280;58450;52.150;4.466;2023-04-07T12:19:23;101896.63;;;10.47;100.00
66273;BME280;58450;52.150;4.466;2023-04-07T12:21:52;101894.81;;;10.47;100.00
66273;BME280;58450;52.150;4.466;2023-04-07T12:24:19;101898.94;;;10.76;100.00
66273;BME280;58450;52.150;4.466;2023-04-07T12:26:47;101899.22;;;10.57;100.00
66273;BME280;58450;52.150;4.466;2023-04-07T12:29:15;101906.88;;;10.78;100.00
66273;BME280;58450;52.150;4.466;2023-04-07T12:31:46;101905.56;;;10.82;100.00
66273;BME280;58450;52.150;4.466;2023-04-07T12:34:13;101905.78;;;11.05;100.00
66273;BME280;58450;52.150;4.466;2023-04-07T12:36:41;101911.06;;;10.72;100.00
66273;BME280;58450;52.150;4.466;2023-04-07T12:39:08;101909.69;;;10.60;100.00
66273;BME280;58450;52.150;4.466;2023-04-07T12:41:36;101914.16;;;10.51;100.00
66273;BME280;58450;52.150;4.466;2023-04-07T12:44:04;101921.53;;;10.49;100.00
66273;BME280;58450;52.150;4.466;2023-04-07T12:46:32;101919.72;;;10.49;100.00
66273;BME280;58450;52.150;4.466;2023-04-07T12:49:01;101914.31;;;10.84;100.00
66273;BME280;58450;52.150;4.466;2023-04-07T12:51:29;101924.28;;;10.57;100.00
66273;BME280;58450;52.150;4.466;2023-04-07T12:53:58;101912.97;;;10.27;100.00
66273;BME280;58450;52.150;4.466;2023-04-07T12:56:26;101909.03;;;10.13;100.00
66273;BME280;58450;52.150;4.466;2023-04-07T12:58:54;101914.28;;;10.23;100.00
66273;BME280;58450;52.150;4.466;2023-04-07T13:01:22;101911.16;;;10.28;100.00